Veni Vi — LD9966 — position and weather

sailwx.info

Track history (hours):
 
Tides and Currents Weather Stations Pressure Air Temp Water Temp Dewpoint Dewpoint Depression Visibility Wind Speed Wind Dir Waves Ship Positions

Veni Vi

Last reported at 2016-May-29 16:28 UTC. Time now 2016-May-29 21:11 UTC.
Position N 60°16' E 005°14'.

Length 13 m.

Type: Sailing vessel. MMSI: 257827490.

Date/timePositionNaut miles runAvg speedWind from/ knotsBaromVisibWave heightAir tempDewpointWater temp
2016-May-29 16:28N 60°16' E 005°14'3 3.0
2016-May-29 15:33N 60°14' E 005°10'0 0.3
2016-May-29 14:31N 60°14' E 005°09'3 3.4
2016-May-29 13:33N 60°17' E 005°12'2 0.1
2016-May-28 15:32N 60°20' E 005°12'4 4.3
2016-May-28 14:31N 60°16' E 005°15'0 0.0
2016-May-28 13:29N 60°16' E 005°15'0 0.0
2016-May-28 12:32N 60°16' E 005°15'0 0.0
2016-May-27 18:29N 60°16' E 005°15'2 2.1
2016-May-27 17:33N 60°15' E 005°11'1 0.6
2016-May-27 16:33N 60°15' E 005°13'5 4.8
2016-May-27 15:33N 60°10' E 005°15'4 3.8
2016-May-27 14:33N 60°14' E 005°14'1 1.2
2016-May-27 13:33N 60°15' E 005°14'1 0.6
2016-May-27 12:29N 60°16' E 005°15'0 0.0
2016-May-26 20:23N 60°16' E 005°15'3 2.9
2016-May-26 19:29N 60°18' E 005°12'1 1.2
2016-May-26 18:29N 60°19' E 005°12'4 3.8
2016-May-26 17:31N 60°16' E 005°14'1 1.0
2016-May-26 16:30N 60°16' E 005°12'1 1.4
2016-May-26 15:29N 60°15' E 005°14'4 4.7
2016-May-26 14:33N 60°11' E 005°14'5 1.9
2016-May-26 12:13N 60°15' E 005°15'1 0.0
2016-May-25 19:29N 60°16' E 005°15'3 3.4
2016-May-25 18:33N 60°13' E 005°13'1 0.8
2016-May-25 17:34N 60°13' E 005°12'2 2.4
2016-May-25 16:34N 60°15' E 005°14'1 0.6
2016-May-25 15:27N 60°15' E 005°15'0 0.0
2016-May-25 14:29N 60°15' E 005°14'  
Track history (hours):
 
Tides and Currents Weather Stations Pressure Air Temp Water Temp Dewpoint Dewpoint Depression Visibility Wind Speed Wind Dir Waves Ship Positions

Veni Vi

Last reported at 2016-May-29 16:28 UTC. Time now 2016-May-29 21:11 UTC.
Position N 60°16' E 005°14'.

Length 13 m.

Type: Sailing vessel. MMSI: 257827490.

Date/timePositionNaut miles runAvg speedWind from/ knotsBaromVisibWave heightAir tempDewpointWater temp
2016-May-29 16:28N 60°16' E 005°14'3 3.0
2016-May-29 15:33N 60°14' E 005°10'0 0.3
2016-May-29 14:31N 60°14' E 005°09'3 3.4
2016-May-29 13:33N 60°17' E 005°12'2 0.1
2016-May-28 15:32N 60°20' E 005°12'4 4.3
2016-May-28 14:31N 60°16' E 005°15'0 0.0
2016-May-28 13:29N 60°16' E 005°15'0 0.0
2016-May-28 12:32N 60°16' E 005°15'0 0.0
2016-May-27 18:29N 60°16' E 005°15'2 2.1
2016-May-27 17:33N 60°15' E 005°11'1 0.6
2016-May-27 16:33N 60°15' E 005°13'5 4.8
2016-May-27 15:33N 60°10' E 005°15'4 3.8
2016-May-27 14:33N 60°14' E 005°14'1 1.2
2016-May-27 13:33N 60°15' E 005°14'1 0.6
2016-May-27 12:29N 60°16' E 005°15'0 0.0
2016-May-26 20:23N 60°16' E 005°15'3 2.9
2016-May-26 19:29N 60°18' E 005°12'1 1.2
2016-May-26 18:29N 60°19' E 005°12'4 3.8
2016-May-26 17:31N 60°16' E 005°14'1 1.0
2016-May-26 16:30N 60°16' E 005°12'1 1.4
2016-May-26 15:29N 60°15' E 005°14'4 4.7
2016-May-26 14:33N 60°11' E 005°14'5 1.9
2016-May-26 12:13N 60°15' E 005°15'1 0.0
2016-May-25 19:29N 60°16' E 005°15'3 3.4
2016-May-25 18:33N 60°13' E 005°13'1 0.8
2016-May-25 17:34N 60°13' E 005°12'2 2.4
2016-May-25 16:34N 60°15' E 005°14'1 0.6
2016-May-25 15:27N 60°15' E 005°15'0 0.0
2016-May-25 14:29N 60°15' E 005°14'  

Dump ship's entire track history